Time;durP1;ratioP1;P1;durP2;ratioP2;P2;SDS_P1;SDS_P2;PMS_P1;PMS_P2;Temp;Humidity;BMP_temperature;BMP_pressure;BME280_temperature;BME280_humidity;BME280_pressure;Samples;Min_cycle;Max_cycle;Signal;HPM_P1;HPM_P2
2022/05/14 00:00:57;;;;;;;4.20;2.20;;;10.20;99.90;;;;;;5055269;28;20204;-76
2022/05/14 00:03:26;;;;;;;3.50;2.10;;;10.20;99.90;;;;;;5055398;28;20255;-77
2022/05/14 00:05:54;;;;;;;3.50;2.03;;;10.20;99.90;;;;;;5054649;28;20202;-77
2022/05/14 00:08:22;;;;;;;4.07;2.00;;;10.10;99.90;;;;;;5054993;28;20231;-77
2022/05/14 00:13:35;;;;;;;2.77;2.13;;;10.10;99.90;;;;;;5055281;28;20238;-77
2022/05/14 00:16:03;;;;;;;4.07;2.10;;;10.00;99.90;;;;;;5055051;28;20240;-77
2022/05/14 00:18:32;;;;;;;3.83;2.20;;;9.90;99.90;;;;;;5055333;28;20282;-77
2022/05/14 00:20:59;;;;;;;5.77;2.40;;;9.90;99.90;;;;;;5054084;28;20730;-77
2022/05/14 00:23:26;;;;;;;5.60;2.20;;;9.90;99.90;;;;;;5055024;28;20233;-78
2022/05/14 00:25:53;;;;;;;4.50;2.10;;;10.00;99.90;;;;;;5055205;28;20231;-77
2022/05/14 00:28:21;;;;;;;3.50;2.07;;;10.00;99.90;;;;;;5054679;28;20867;-78
2022/05/14 00:30:49;;;;;;;6.23;2.40;;;9.90;99.90;;;;;;5055163;28;20285;-77
2022/05/14 00:33:16;;;;;;;4.97;2.50;;;9.90;99.90;;;;;;5054568;28;20678;-77
2022/05/14 00:35:45;;;;;;;4.43;2.57;;;9.90;99.90;;;;;;5054585;28;20245;-77
2022/05/14 00:38:12;;;;;;;5.97;2.50;;;9.80;99.90;;;;;;5054430;28;20312;-76
2022/05/14 00:40:42;;;;;;;5.37;2.37;;;9.70;99.90;;;;;;5054690;28;20203;-77
2022/05/14 00:43:10;;;;;;;3.50;2.20;;;9.80;99.90;;;;;;5054417;28;20215;-76
2022/05/14 00:45:40;;;;;;;4.77;2.67;;;9.80;99.90;;;;;;5054937;28;20286;-78
2022/05/14 00:48:11;;;;;;;3.70;2.43;;;9.70;99.90;;;;;;5055284;28;20227;-79
2022/05/14 00:50:42;;;;;;;4.97;2.40;;;9.70;99.90;;;;;;5054011;28;20241;-77
2022/05/14 00:53:16;;;;;;;4.67;2.50;;;9.60;99.90;;;;;;5054329;28;20195;-78
2022/05/14 00:55:45;;;;;;;5.83;2.80;;;9.60;99.90;;;;;;5053882;28;20207;-78
2022/05/14 00:58:17;;;;;;;3.10;2.60;;;9.50;99.90;;;;;;5054265;28;20772;-78
2022/05/14 01:00:44;;;;;;;4.90;2.60;;;9.50;99.90;;;;;;5054072;28;20286;-79
2022/05/14 01:03:11;;;;;;;5.77;2.57;;;9.40;99.90;;;;;;5053988;28;20223;-78
2022/05/14 01:05:38;;;;;;;4.40;2.63;;;9.40;99.90;;;;;;5053348;28;20203;-78
2022/05/14 01:08:06;;;;;;;9.00;2.77;;;9.40;99.90;;;;;;5053996;28;20286;-78
2022/05/14 01:10:41;;;;;;;5.00;2.47;;;9.40;99.90;;;;;;5053530;28;20247;-79
2022/05/14 01:13:08;;;;;;;3.70;2.60;;;9.40;99.90;;;;;;5054121;28;20305;-78
2022/05/14 01:15:41;;;;;;;4.33;2.80;;;9.40;99.90;;;;;;5053579;28;20204;-79
2022/05/14 01:18:08;;;;;;;3.83;2.40;;;9.40;99.90;;;;;;5053935;28;20235;-78
2022/05/14 01:20:36;;;;;;;4.57;2.47;;;9.50;99.90;;;;;;5053266;28;20208;-79
2022/05/14 01:23:11;;;;;;;7.00;2.53;;;9.60;99.90;;;;;;5054117;28;20246;-79
2022/05/14 01:28:59;;;;;;;4.17;2.53;;;9.80;99.90;;;;;;5053018;28;20730;-78
2022/05/14 01:31:28;;;;;;;4.17;2.60;;;9.80;99.90;;;;;;5053334;28;20227;-79
2022/05/14 01:33:56;;;;;;;8.67;2.63;;;9.80;99.90;;;;;;5053303;28;20732;-79
2022/05/14 01:36:23;;;;;;;5.13;2.70;;;9.80;99.90;;;;;;5053568;28;20238;-78
2022/05/14 01:38:50;;;;;;;4.40;2.67;;;9.70;99.90;;;;;;5053343;28;20200;-78
2022/05/14 01:41:19;;;;;;;5.73;3.00;;;9.50;99.90;;;;;;5053703;28;20199;-79
2022/05/14 01:43:45;;;;;;;4.67;2.83;;;9.50;99.90;;;;;;5053294;28;20334;-79
2022/05/14 01:46:12;;;;;;;6.67;3.17;;;9.40;99.90;;;;;;5053072;28;20416;-79
2022/05/14 01:48:39;;;;;;;4.80;2.90;;;9.50;99.90;;;;;;5053712;28;20233;-78
2022/05/14 01:51:06;;;;;;;6.80;2.77;;;9.40;99.90;;;;;;5052857;28;20238;-78
2022/05/14 01:53:33;;;;;;;6.33;2.60;;;9.40;99.90;;;;;;5053265;28;20206;-78
2022/05/14 01:56:00;;;;;;;6.10;3.20;;;9.40;99.90;;;;;;5052966;28;20857;-77
2022/05/14 01:58:38;;;;;;;5.37;3.00;;;9.50;99.90;;;;;;5052395;28;20241;-78
2022/05/14 02:01:10;;;;;;;7.20;3.10;;;9.40;99.90;;;;;;5052800;28;20666;-79
2022/05/14 02:03:38;;;;;;;6.13;3.00;;;9.30;99.90;;;;;;5053137;28;20254;-78
2022/05/14 02:06:05;;;;;;;7.17;2.90;;;9.30;99.90;;;;;;5052717;28;20235;-78
2022/05/14 02:08:33;;;;;;;4.70;3.10;;;9.30;99.90;;;;;;5053333;28;20234;-78
2022/05/14 02:11:00;;;;;;;4.53;3.10;;;9.30;99.90;;;;;;5052776;28;20239;-79
2022/05/14 02:13:28;;;;;;;3.73;2.97;;;9.20;99.90;;;;;;5052736;28;20306;-78
2022/05/14 02:15:56;;;;;;;3.70;2.90;;;9.20;99.90;;;;;;5052376;28;20624;-78
2022/05/14 02:18:23;;;;;;;4.47;2.80;;;9.30;99.90;;;;;;5053482;28;20210;-78
2022/05/14 02:20:50;;;;;;;3.93;2.70;;;9.30;99.90;;;;;;5053158;28;20286;-77
2022/05/14 02:23:17;;;;;;;5.73;3.07;;;9.30;99.90;;;;;;5052263;28;20259;-77
2022/05/14 02:25:45;;;;;;;4.97;3.00;;;9.30;99.90;;;;;;5053088;28;20242;-77
2022/05/14 02:28:12;;;;;;;7.10;3.33;;;9.40;99.90;;;;;;5052443;28;20661;-78
2022/05/14 02:30:41;;;;;;;7.07;3.50;;;9.40;99.90;;;;;;5052749;28;20223;-78
2022/05/14 02:33:08;;;;;;;5.03;2.90;;;9.50;99.90;;;;;;5051545;28;20224;-78
2022/05/14 02:35:35;;;;;;;7.03;3.30;;;9.60;99.90;;;;;;5044607;28;20232;-78
2022/05/14 02:38:02;;;;;;;4.23;3.03;;;9.70;99.90;;;;;;5051883;28;20703;-79
2022/05/14 02:40:29;;;;;;;4.23;3.10;;;9.60;99.90;;;;;;5051977;28;20643;-78
2022/05/14 02:42:57;;;;;;;5.80;3.17;;;9.60;99.90;;;;;;5051851;28;20232;-78
2022/05/14 02:45:24;;;;;;;5.57;3.20;;;9.60;99.90;;;;;;5052180;28;20199;-78
2022/05/14 02:47:52;;;;;;;4.30;3.13;;;9.70;99.90;;;;;;5051586;28;20239;-78
2022/05/14 02:50:20;;;;;;;6.50;3.17;;;9.70;99.90;;;;;;5051840;28;20623;-78
2022/05/14 02:52:47;;;;;;;5.60;3.40;;;9.70;99.90;;;;;;5051831;28;20231;-77
2022/05/14 02:55:14;;;;;;;6.60;3.00;;;9.70;99.90;;;;;;5052501;28;20250;-78
2022/05/14 02:57:41;;;;;;;3.80;3.10;;;9.60;99.90;;;;;;5051843;28;20291;-77
2022/05/14 03:00:12;;;;;;;6.93;3.43;;;9.60;99.90;;;;;;5052299;28;20738;-78
2022/05/14 03:02:38;;;;;;;7.53;3.57;;;9.50;99.90;;;;;;5051486;28;20207;-77
2022/05/14 03:05:08;;;;;;;6.03;3.70;;;9.40;99.90;;;;;;5051970;28;20250;-78
2022/05/14 03:07:35;;;;;;;7.23;3.37;;;9.40;99.90;;;;;;5051732;28;20291;-78
2022/05/14 03:10:02;;;;;;;5.57;3.70;;;9.30;99.90;;;;;;5052070;28;20307;-78
2022/05/14 03:12:29;;;;;;;5.40;3.57;;;9.40;99.90;;;;;;5051333;28;20229;-78
2022/05/14 03:14:56;;;;;;;6.43;3.27;;;9.30;99.90;;;;;;5052101;28;20279;-78
2022/05/14 03:17:23;;;;;;;5.47;3.07;;;9.40;99.90;;;;;;5051221;28;20228;-78
2022/05/14 03:19:51;;;;;;;7.07;3.40;;;9.40;99.90;;;;;;5051196;28;20679;-76
2022/05/14 03:22:19;;;;;;;6.10;3.40;;;9.40;99.90;;;;;;5051797;28;20662;-76
2022/05/14 03:24:47;;;;;;;4.33;3.37;;;9.40;99.90;;;;;;5032120;28;20255;-77
2022/05/14 03:27:13;;;;;;;6.57;3.27;;;9.30;99.90;;;;;;5039576;28;20286;-77
2022/05/14 03:29:41;;;;;;;6.67;3.40;;;9.40;99.90;;;;;;5051403;28;20287;-77
2022/05/14 03:32:09;;;;;;;7.20;3.13;;;9.40;99.90;;;;;;5051356;28;20290;-77
2022/05/14 03:34:37;;;;;;;8.27;3.50;;;9.40;99.90;;;;;;5051942;28;20234;-78
2022/05/14 03:37:04;;;;;;;6.67;3.13;;;9.50;99.90;;;;;;5051633;28;20206;-77
2022/05/14 03:39:33;;;;;;;8.57;3.43;;;9.50;99.90;;;;;;5051626;28;20212;-76
2022/05/14 03:42:00;;;;;;;6.33;3.60;;;9.50;99.90;;;;;;5051348;28;20279;-77
2022/05/14 03:44:27;;;;;;;6.43;3.20;;;9.40;99.90;;;;;;5051475;28;20261;-77
2022/05/14 03:46:54;;;;;;;5.77;3.50;;;9.50;99.90;;;;;;5051067;28;20202;-76
2022/05/14 03:49:20;;;;;;;7.67;3.90;;;9.60;99.90;;;;;;5051758;28;20239;-77
2022/05/14 03:51:47;;;;;;;8.27;3.70;;;9.60;99.90;;;;;;5051916;28;20242;-77
2022/05/14 03:54:14;;;;;;;7.70;3.57;;;9.60;99.90;;;;;;5051581;28;20282;-76
2022/05/14 03:56:42;;;;;;;6.37;3.60;;;9.70;99.90;;;;;;5051694;28;20226;-76
2022/05/14 03:59:09;;;;;;;5.77;3.60;;;9.80;99.90;;;;;;5050970;28;20609;-77
2022/05/14 04:01:37;;;;;;;7.00;3.20;;;9.80;99.90;;;;;;5051102;28;20290;-76
2022/05/14 04:04:05;;;;;;;8.43;3.70;;;9.80;99.90;;;;;;5051069;28;20314;-79
2022/05/14 04:06:32;;;;;;;5.97;3.80;;;9.90;99.90;;;;;;5051928;28;20282;-79
2022/05/14 04:08:59;;;;;;;5.90;3.60;;;9.90;99.90;;;;;;5051338;28;20738;-78
2022/05/14 04:11:27;;;;;;;7.23;3.87;;;10.10;99.90;;;;;;5051887;28;20203;-79
2022/05/14 04:13:57;;;;;;;7.40;3.63;;;10.20;99.90;;;;;;5051594;28;20274;-79
2022/05/14 04:16:24;;;;;;;9.73;3.80;;;10.20;99.90;;;;;;5051368;28;20280;-79
2022/05/14 04:18:51;;;;;;;8.37;3.53;;;10.30;99.90;;;;;;5051159;28;20298;-79
2022/05/14 04:21:18;;;;;;;9.33;3.90;;;10.40;99.90;;;;;;5051181;28;20286;-78
2022/05/14 04:23:44;;;;;;;8.53;3.70;;;10.30;99.90;;;;;;5051546;28;20267;-78
2022/05/14 04:26:12;;;;;;;7.53;3.40;;;10.40;99.90;;;;;;5051294;28;20241;-79
2022/05/14 04:28:39;;;;;;;7.77;3.33;;;10.40;99.90;;;;;;5051224;28;20683;-79
2022/05/14 04:31:07;;;;;;;5.57;3.50;;;10.50;99.90;;;;;;5051308;28;20228;-76
2022/05/14 04:33:34;;;;;;;7.10;3.60;;;10.50;99.90;;;;;;5051298;28;20287;-79
2022/05/14 04:36:01;;;;;;;7.43;3.60;;;10.60;99.90;;;;;;5051666;28;20196;-79
2022/05/14 04:38:28;;;;;;;4.43;3.30;;;10.60;99.90;;;;;;5050973;28;20227;-79
2022/05/14 04:40:55;;;;;;;6.00;3.43;;;10.60;99.90;;;;;;5054659;28;20282;-79
2022/05/14 04:43:22;;;;;;;7.20;3.87;;;10.70;99.90;;;;;;5054261;28;20234;-78
2022/05/14 04:45:49;;;;;;;7.30;3.40;;;10.80;99.90;;;;;;5054160;28;20332;-78
2022/05/14 04:48:17;;;;;;;7.87;3.50;;;10.80;99.90;;;;;;5054131;28;20286;-78
2022/05/14 04:50:45;;;;;;;5.80;3.47;;;10.90;99.90;;;;;;5054329;28;20203;-78
2022/05/14 04:53:13;;;;;;;7.30;3.30;;;10.90;99.90;;;;;;5054660;28;20290;-79
2022/05/14 04:55:40;;;;;;;5.73;3.20;;;10.90;99.90;;;;;;5054593;28;20637;-78
2022/05/14 04:58:08;;;;;;;5.50;3.30;;;11.00;99.90;;;;;;5054073;28;20231;-78
2022/05/14 05:00:36;;;;;;;7.90;3.60;;;11.00;99.90;;;;;;5054541;28;20242;-78
2022/05/14 05:03:17;;;;;;;7.53;3.47;;;11.10;99.90;;;;;;5054117;28;20228;-78
2022/05/14 05:05:45;;;;;;;7.47;3.20;;;11.20;99.90;;;;;;5054201;28;21673;-78
2022/05/14 05:08:12;;;;;;;5.17;2.87;;;11.30;99.90;;;;;;5054629;28;20201;-79
2022/05/14 05:10:40;;;;;;;7.17;3.27;;;11.30;99.90;;;;;;5054218;28;20224;-79
2022/05/14 05:13:10;;;;;;;5.97;2.90;;;11.40;99.90;;;;;;5054166;28;20728;-78
2022/05/14 05:15:38;;;;;;;3.97;2.93;;;11.50;99.90;;;;;;5054429;28;20226;-78
2022/05/14 05:18:05;;;;;;;7.83;2.50;;;11.60;99.90;;;;;;5054047;28;20293;-78
2022/05/14 05:20:32;;;;;;;7.33;3.13;;;11.70;99.90;;;;;;5054166;28;20691;-78
2022/05/14 05:23:01;;;;;;;5.67;2.50;;;11.70;99.90;;;;;;5054517;28;20235;-78
2022/05/14 05:25:28;;;;;;;6.53;2.60;;;11.80;99.90;;;;;;5054436;28;20317;-79
2022/05/14 05:27:55;;;;;;;6.20;3.10;;;11.90;99.90;;;;;;5053947;28;20207;-78
2022/05/14 05:30:22;;;;;;;6.43;2.70;;;12.00;99.90;;;;;;5054712;28;20205;-78
2022/05/14 05:32:49;;;;;;;6.47;2.90;;;12.20;99.90;;;;;;5052764;28;20244;-79
2022/05/14 05:35:16;;;;;;;5.73;2.60;;;12.30;99.90;;;;;;5053416;28;20691;-78
2022/05/14 05:37:44;;;;;;;5.27;2.50;;;12.30;99.90;;;;;;5053758;28;20727;-79
2022/05/14 05:40:13;;;;;;;6.90;2.30;;;12.30;99.90;;;;;;5054127;28;20213;-79
2022/05/14 05:42:40;;;;;;;5.03;2.43;;;12.30;99.90;;;;;;5053111;28;20238;-78
2022/05/14 05:45:08;;;;;;;6.37;2.20;;;12.40;99.90;;;;;;5053295;28;20629;-79
2022/05/14 05:47:35;;;;;;;4.20;2.10;;;12.50;99.90;;;;;;5053824;28;20211;-79
2022/05/14 05:50:02;;;;;;;5.17;2.27;;;12.70;99.90;;;;;;5052279;28;20755;-79
2022/05/14 05:52:31;;;;;;;6.53;2.30;;;12.70;99.90;;;;;;5053485;28;20586;-79
2022/05/14 05:57:45;;;;;;;5.70;2.20;;;13.00;99.90;;;;;;5053376;28;20205;-79
2022/05/14 06:00:15;;;;;;;4.23;2.10;;;13.20;99.90;;;;;;5053797;28;20654;-78
2022/05/14 06:02:42;;;;;;;6.70;2.37;;;13.50;99.90;;;;;;5052702;28;20245;-79
2022/05/14 06:05:10;;;;;;;4.70;1.90;;;13.70;99.90;;;;;;5052003;28;20247;-78
2022/05/14 06:07:37;;;;;;;6.03;2.10;;;14.10;99.90;;;;;;5053137;28;20333;-78
2022/05/14 06:10:06;;;;;;;3.70;1.87;;;14.90;99.90;;;;;;5052892;28;20220;-79
2022/05/14 06:12:34;;;;;;;8.00;1.90;;;16.20;99.90;;;;;;5052798;28;20243;-79
2022/05/14 06:15:02;;;;;;;2.83;1.87;;;16.80;99.90;;;;;;5053131;28;20203;-78
2022/05/14 06:17:29;;;;;;;3.67;2.00;;;17.30;99.90;;;;;;5053346;28;20295;-79
2022/05/14 06:19:56;;;;;;;4.37;1.90;;;17.60;99.90;;;;;;5053184;28;20322;-79
2022/05/14 06:22:23;;;;;;;3.97;1.97;;;17.80;99.90;;;;;;5052493;28;20242;-78
2022/05/14 06:24:50;;;;;;;4.47;1.50;;;17.30;99.90;;;;;;5052998;28;20223;-78
2022/05/14 06:27:17;;;;;;;2.97;1.60;;;16.70;99.90;;;;;;5052277;28;20231;-79
2022/05/14 06:29:44;;;;;;;6.60;1.60;;;16.50;99.90;;;;;;5052744;28;20706;-79
2022/05/14 06:32:12;;;;;;;4.73;1.70;;;16.60;99.90;;;;;;5051874;28;20238;-80
2022/05/14 06:34:39;;;;;;;3.83;1.60;;;16.90;99.90;;;;;;5051879;28;20674;-79
2022/05/14 06:37:06;;;;;;;3.33;1.80;;;17.40;99.90;;;;;;5051616;28;20230;-79
2022/05/14 06:39:33;;;;;;;3.83;1.70;;;18.40;99.90;;;;;;5051373;28;20282;-79
2022/05/14 06:42:00;;;;;;;5.28;2.05;;;18.50;99.90;;;;;;5051868;28;20231;-79
2022/05/14 06:44:26;;;;;;;3.22;1.50;;;18.60;99.90;;;;;;5051403;28;20219;-79
2022/05/14 06:46:53;;;;;;;3.55;1.48;;;19.40;99.90;;;;;;5052418;28;20279;-79
2022/05/14 06:49:22;;;;;;;2.65;1.50;;;19.90;99.90;;;;;;5052333;28;20224;-79
2022/05/14 06:51:48;;;;;;;7.28;1.55;;;19.60;99.90;;;;;;5052135;28;20291;-79
2022/05/14 06:54:15;;;;;;;4.47;1.58;;;19.80;99.90;;;;;;5052049;28;20253;-79
2022/05/14 06:56:45;;;;;;;3.03;1.50;;;20.10;99.90;;;;;;5051610;28;20231;-79
2022/05/14 06:59:14;;;;;;;3.53;1.38;;;19.60;99.90;;;;;;5051809;28;20246;-80
2022/05/14 07:01:45;;;;;;;2.55;1.40;;;20.20;99.90;;;;;;5049498;28;20223;-79
2022/05/14 07:07:00;;;;;;;2.92;1.40;;;21.70;99.90;;;;;;5047623;28;20293;-80
2022/05/14 07:09:29;;;;;;;3.08;1.50;;;21.20;99.90;;;;;;5050108;28;20758;-80
2022/05/14 07:11:58;;;;;;;3.15;1.25;;;21.40;99.90;;;;;;5051357;28;20668;-81
2022/05/14 07:14:28;;;;;;;3.10;1.38;;;22.20;99.90;;;;;;5050233;28;20263;-81
2022/05/14 07:16:55;;;;;;;4.72;1.42;;;22.00;99.90;;;;;;5051850;28;20649;-81
2022/05/14 07:19:23;;;;;;;4.72;1.80;;;21.80;99.90;;;;;;5052405;28;20639;-81
2022/05/14 07:21:51;;;;;;;3.53;1.50;;;21.30;99.90;;;;;;5052228;28;20203;-80
2022/05/14 07:24:22;;;;;;;3.17;1.30;;;20.40;99.90;;;;;;5051229;28;20683;-80
2022/05/14 07:26:51;;;;;;;3.28;1.38;;;21.10;99.90;;;;;;5052378;28;20627;-80
2022/05/14 07:29:20;;;;;;;3.95;1.40;;;21.30;99.90;;;;;;5051909;28;20204;-80
2022/05/14 07:31:47;;;;;;;5.53;1.48;;;21.00;99.90;;;;;;5052484;28;20242;-80
2022/05/14 07:34:14;;;;;;;7.38;1.67;;;20.50;99.90;;;;;;5052445;28;20286;-80
2022/05/14 07:36:45;;;;;;;5.03;1.85;;;20.50;99.90;;;;;;5052177;28;20812;-80
2022/05/14 07:39:13;;;;;;;5.20;1.92;;;20.20;99.90;;;;;;5051564;28;20199;-80
2022/05/14 07:41:45;;;;;;;6.82;1.65;;;20.10;99.90;;;;;;5052758;28;20298;-80
2022/05/14 07:44:16;;;;;;;2.30;1.40;;;20.90;99.90;;;;;;5052151;28;20254;-80
2022/05/14 07:46:47;;;;;;;4.10;1.60;;;20.80;99.90;;;;;;5052808;28;20317;-80
2022/05/14 07:49:16;;;;;;;2.35;1.70;;;20.80;99.90;;;;;;5051146;28;20204;-80
2022/05/14 07:51:44;;;;;;;2.95;1.73;;;20.50;99.90;;;;;;5051971;28;20667;-80
2022/05/14 07:54:11;;;;;;;4.05;1.67;;;20.20;99.90;;;;;;5051779;28;20234;-81
2022/05/14 07:56:39;;;;;;;4.75;1.90;;;20.90;99.90;;;;;;5052693;28;20227;-81
2022/05/14 07:59:08;;;;;;;5.82;2.05;;;20.90;99.90;;;;;;5052267;28;20204;-80
2022/05/14 08:01:34;;;;;;;3.08;1.42;;;20.80;99.90;;;;;;5052393;28;20295;-81
2022/05/14 08:04:01;;;;;;;3.40;1.60;;;21.40;99.90;;;;;;5052748;28;20243;-81
2022/05/14 08:06:28;;;;;;;6.53;1.88;;;21.70;99.90;;;;;;5052602;28;20330;-81
2022/05/14 08:08:56;;;;;;;4.03;1.30;;;21.30;99.90;;;;;;5052661;28;20302;-80
2022/05/14 08:11:23;;;;;;;3.53;1.50;;;21.60;99.90;;;;;;5051985;28;20199;-80
2022/05/14 08:13:53;;;;;;;3.38;1.35;;;22.60;99.90;;;;;;5053173;28;20319;-80
2022/05/14 08:16:22;;;;;;;4.90;1.70;;;22.30;99.90;;;;;;5055629;28;20219;-81
2022/05/14 08:18:49;;;;;;;3.33;1.55;;;21.50;99.90;;;;;;5055795;28;20789;-81
2022/05/14 08:26:44;;;;;;;5.93;1.63;;;21.80;99.90;;;;;;5055688;28;20594;-80
2022/05/14 08:29:11;;;;;;;6.30;1.80;;;22.40;99.90;;;;;;5055830;28;20239;-81
2022/05/14 08:31:40;;;;;;;3.53;1.30;;;23.10;99.90;;;;;;5056182;28;20210;-81
2022/05/14 08:34:06;;;;;;;3.95;1.50;;;22.50;99.90;;;;;;5055524;28;20279;-81
2022/05/14 08:36:33;;;;;;;6.72;1.40;;;22.40;99.90;;;;;;5055917;28;20279;-81
2022/05/14 08:39:00;;;;;;;3.17;1.30;;;23.90;99.90;;;;;;5055486;28;20286;-81
2022/05/14 08:41:28;;;;;;;3.35;1.33;;;24.90;99.90;;;;;;5056187;28;20253;-81
2022/05/14 08:44:00;;;;;;;4.30;1.50;;;25.60;99.90;;;;;;5054976;28;20282;-80
2022/05/14 08:46:27;;;;;;;4.22;1.20;;;25.20;99.90;;;;;;5055524;28;20231;-81
2022/05/14 08:49:01;;;;;;;4.40;1.63;;;25.80;99.90;;;;;;5055764;28;20262;-80
2022/05/14 08:51:32;;;;;;;4.00;1.20;;;25.30;99.90;;;;;;5055059;28;20259;-81
2022/05/14 08:54:00;;;;;;;5.05;1.40;;;25.10;99.90;;;;;;5055953;28;20210;-81
2022/05/14 08:56:33;;;;;;;4.93;1.60;;;25.60;99.90;;;;;;5056071;28;20600;-81
2022/05/14 08:59:25;;;;;;;5.57;1.23;;;26.30;99.90;;;;;;5055852;28;20239;-81
2022/05/14 09:01:58;;;;;;;2.88;1.30;;;26.10;99.90;;;;;;5048324;28;20253;-81
2022/05/14 09:04:27;;;;;;;2.25;1.30;;;25.60;95.30;;;;;;5054853;28;20234;-81
2022/05/14 09:06:53;;;;;;;4.28;1.50;;;26.20;93.90;;;;;;5054781;28;20262;-81
2022/05/14 09:09:21;;;;;;;4.95;1.40;;;26.60;85.00;;;;;;5055198;28;20258;-80
2022/05/14 09:11:55;;;;;;;4.68;1.30;;;26.70;70.10;;;;;;5055140;28;20261;-81
2022/05/14 09:14:27;;;;;;;2.17;1.23;;;26.10;88.00;;;;;;5054778;28;20262;-81
2022/05/14 09:17:04;;;;;;;5.85;1.50;;;26.40;62.30;;;;;;5055183;28;20282;-80
2022/05/14 09:19:38;;;;;;;5.50;1.20;;;26.60;56.80;;;;;;5053436;28;20678;-81
2022/05/14 09:22:18;;;;;;;4.20;1.40;;;26.80;64.50;;;;;;5054031;28;20227;-81
2022/05/14 09:24:52;;;;;;;5.53;1.40;;;26.50;44.70;;;;;;5053962;28;20199;-81
2022/05/14 09:27:24;;;;;;;3.88;1.40;;;27.10;47.50;;;;;;5053963;28;20254;-81
2022/05/14 09:29:55;;;;;;;2.65;1.05;;;26.80;34.80;;;;;;5054269;28;20195;-79
2022/05/14 09:32:36;;;;;;;4.35;1.40;;;27.70;40.40;;;;;;5054296;28;20211;-81
2022/05/14 09:35:12;;;;;;;3.78;1.30;;;27.60;30.00;;;;;;5053715;28;20209;-81
2022/05/14 09:37:39;;;;;;;3.45;1.27;;;27.60;27.80;;;;;;5053263;28;20629;-82
2022/05/14 09:40:12;;;;;;;2.95;1.20;;;27.60;27.60;;;;;;5053909;28;20261;-81
2022/05/14 09:42:43;;;;;;;1.70;1.00;;;28.00;19.60;;;;;;5054193;28;20231;-81
2022/05/14 09:45:22;;;;;;;3.25;1.17;;;28.20;18.00;;;;;;5053882;28;20200;-80
2022/05/14 09:47:50;;;;;;;4.10;0.93;;;27.50;15.60;;;;;;5053436;28;20195;-81
2022/05/14 09:50:22;;;;;;;3.03;1.00;;;27.10;15.90;;;;;;5045948;28;20227;-80
2022/05/14 09:52:58;;;;;;;3.20;1.45;;;26.40;23.20;;;;;;5053625;28;20290;-81
2022/05/14 09:55:39;;;;;;;5.82;1.35;;;26.90;28.90;;;;;;5053616;28;20248;-81
2022/05/14 09:58:11;;;;;;;3.85;1.10;;;27.30;23.80;;;;;;5053333;28;20271;-81
2022/05/14 10:00:45;;;;;;;3.15;1.25;;;26.50;19.30;;;;;;5053453;28;20196;-79
2022/05/14 10:03:35;;;;;;;2.10;1.20;;;27.00;17.50;;;;;;5052584;28;20622;-80
2022/05/14 10:06:15;;;;;;;3.55;1.10;;;27.40;20.80;;;;;;5053026;28;20310;-81
2022/05/14 10:08:59;;;;;;;4.03;1.50;;;27.70;16.20;;;;;;5053562;28;20207;-80
2022/05/14 10:11:31;;;;;;;3.05;1.15;;;27.70;27.70;;;;;;5053597;28;20211;-81
2022/05/14 10:14:10;;;;;;;4.07;1.30;;;28.70;5.60;;;;;;5052915;28;20681;-81
2022/05/14 10:16:43;;;;;;;3.60;1.25;;;27.80;5.90;;;;;;5052751;28;20663;-81
2022/05/14 10:19:23;;;;;;;3.03;1.35;;;28.10;4.80;;;;;;5052413;28;20202;-81
2022/05/14 10:22:00;;;;;;;5.05;1.30;;;28.10;1.00;;;;;;5052794;28;20227;-81
2022/05/14 10:27:54;;;;;;;3.58;1.27;;;28.20;1.00;;;;;;5053222;28;20219;-81
2022/05/14 10:30:25;;;;;;;3.08;1.20;;;28.60;1.00;;;;;;5052824;28;20235;-81
2022/05/14 10:32:57;;;;;;;7.35;2.05;;;28.10;1.00;;;;;;5052424;28;20727;-81
2022/05/14 10:35:29;;;;;;;3.70;2.60;;;27.20;1.00;;;;;;5052712;28;20207;-81
2022/05/14 10:38:00;;;;;;;2.63;1.20;;;28.80;1.00;;;;;;5052145;28;20199;-81
2022/05/14 10:40:34;;;;;;;2.55;1.08;;;29.10;1.00;;;;;;5053216;28;20210;-81
2022/05/14 10:43:17;;;;;;;2.92;1.23;;;28.60;1.00;;;;;;5052737;28;20227;-81
2022/05/14 10:45:46;;;;;;;2.15;1.50;;;28.00;1.00;;;;;;5052599;28;20726;-81
2022/05/14 10:48:23;;;;;;;2.35;1.00;;;28.80;1.00;;;;;;5052335;28;20242;-81
2022/05/14 10:50:50;;;;;;;2.60;1.20;;;28.60;1.00;;;;;;5052878;28;20243;-81
2022/05/14 10:53:18;;;;;;;2.92;1.30;;;29.10;1.00;;;;;;5052166;28;20231;-81
2022/05/14 10:55:54;;;;;;;2.28;1.02;;;29.50;1.00;;;;;;5052592;28;20224;-81
2022/05/14 10:58:35;;;;;;;3.25;1.27;;;29.40;1.00;;;;;;5051329;28;20195;-81
2022/05/14 11:01:04;;;;;;;4.05;1.48;;;27.80;1.00;;;;;;5052014;28;20195;-81
2022/05/14 11:03:36;;;;;;;2.80;1.20;;;28.10;1.00;;;;;;5052296;28;20582;-81
2022/05/14 11:06:13;;;;;;;5.68;1.40;;;28.30;1.00;;;;;;5052439;28;20231;-81
2022/05/14 11:08:44;;;;;;;3.85;1.40;;;27.90;1.00;;;;;;5052301;28;20203;-81
2022/05/14 11:11:18;;;;;;;3.35;1.27;;;28.50;9.30;;;;;;5052145;28;20234;-81
2022/05/14 11:14:02;;;;;;;1.40;1.00;;;28.40;1.00;;;;;;5051873;28;20284;-80
2022/05/14 11:16:43;;;;;;;3.50;1.50;;;26.80;1.00;;;;;;5052225;28;20200;-80
2022/05/14 11:19:11;;;;;;;4.75;1.52;;;25.60;19.70;;;;;;5051576;28;20217;-80
2022/05/14 11:21:41;;;;;;;3.60;1.25;;;26.60;22.40;;;;;;5052405;28;20286;-81
2022/05/14 11:24:12;;;;;;;2.45;1.20;;;27.40;17.10;;;;;;5052043;28;20212;-80
2022/05/14 11:26:50;;;;;;;6.15;1.55;;;27.10;7.40;;;;;;5052426;28;20223;-80
2022/05/14 11:29:20;;;;;;;4.40;1.40;;;25.90;32.60;;;;;;5051786;28;20746;-80
2022/05/14 11:31:55;;;;;;;2.72;1.50;;;25.10;38.40;;;;;;5051808;28;20203;-80
2022/05/14 11:34:25;;;;;;;3.80;1.30;;;25.40;47.80;;;;;;5051458;28;20663;-81
2022/05/14 11:36:56;;;;;;;4.32;1.50;;;26.50;48.30;;;;;;5051805;28;20199;-80
2022/05/14 11:39:30;;;;;;;3.35;1.40;;;27.10;24.60;;;;;;5051906;28;20204;-80
2022/05/14 11:42:11;;;;;;;2.30;1.30;;;27.20;31.00;;;;;;5052008;28;20697;-80
2022/05/14 11:44:45;;;;;;;3.90;1.50;;;26.50;42.40;;;;;;5051524;28;20234;-80
2022/05/14 11:47:35;;;;;;;3.58;1.58;;;25.90;36.60;;;;;;5051961;28;20639;-80
2022/05/14 11:50:04;;;;;;;3.00;1.50;;;25.20;55.10;;;;;;5056022;28;20250;-80
2022/05/14 11:52:38;;;;;;;4.00;1.48;;;25.80;54.10;;;;;;5055766;28;20242;-80
2022/05/14 11:55:11;;;;;;;4.10;1.60;;;25.00;60.40;;;;;;5056048;28;20272;-80
2022/05/14 11:57:43;;;;;;;2.42;1.42;;;24.90;60.90;;;;;;5055734;28;20199;-80
2022/05/14 12:00:14;;;;;;;2.67;1.30;;;26.30;50.80;;;;;;5055657;28;20294;-80
2022/05/14 12:02:49;;;;;;;4.35;1.42;;;27.50;37.20;;;;;;5056281;28;20231;-80
2022/05/14 12:05:21;;;;;;;2.75;1.67;;;28.70;24.40;;;;;;5055692;28;20199;-80
2022/05/14 12:08:19;;;;;;;2.97;1.23;;;27.90;18.00;;;;;;5055267;28;20658;-80
2022/05/14 12:10:52;;;;;;;3.75;1.30;;;27.60;16.70;;;;;;5047261;28;20306;-80
2022/05/14 12:13:28;;;;;;;3.85;1.80;;;28.00;25.30;;;;;;5054804;28;20240;-80
2022/05/14 12:15:58;;;;;;;2.90;1.50;;;27.90;28.20;;;;;;5055543;28;20209;-80
2022/05/14 12:18:25;;;;;;;5.28;1.80;;;27.80;23.00;;;;;;5055239;28;20239;-80
2022/05/14 12:20:57;;;;;;;6.88;1.55;;;27.30;44.30;;;;;;5055318;28;20612;-80
2022/05/14 12:23:35;;;;;;;4.50;1.80;;;27.00;40.70;;;;;;5054757;28;20210;-80
2022/05/14 12:26:06;;;;;;;3.70;1.67;;;28.00;29.30;;;;;;5054165;28;20195;-80
2022/05/14 12:28:35;;;;;;;4.85;1.80;;;29.20;14.70;;;;;;5054539;28;20663;-80
2022/05/14 12:33:54;;;;;;;3.40;1.48;;;28.10;22.30;;;;;;5055157;28;20591;-80
2022/05/14 12:36:21;;;;;;;4.22;1.40;;;27.40;32.50;;;;;;5055413;28;20200;-80
2022/05/14 12:38:48;;;;;;;5.18;1.58;;;26.60;41.40;;;;;;5055097;28;20203;-80
2022/05/14 12:41:32;;;;;;;3.95;1.67;;;25.90;58.90;;;;;;5054841;28;20725;-80
2022/05/14 12:44:08;;;;;;;4.03;1.77;;;25.80;62.30;;;;;;5054854;28;20318;-80
2022/05/14 12:46:40;;;;;;;4.80;1.88;;;26.10;53.20;;;;;;5054846;28;20215;-79
2022/05/14 12:49:07;;;;;;;2.28;1.50;;;27.20;42.50;;;;;;5055149;28;20207;-80
2022/05/14 12:51:34;;;;;;;5.32;1.65;;;28.40;34.50;;;;;;5055194;28;20302;-80
2022/05/14 12:54:01;;;;;;;2.30;1.67;;;28.80;24.20;;;;;;5054989;28;20609;-80
2022/05/14 12:56:32;;;;;;;5.40;1.90;;;28.50;28.50;;;;;;5054584;28;20242;-80
2022/05/14 12:59:01;;;;;;;2.95;1.60;;;27.60;29.30;;;;;;5053683;28;20663;-80
2022/05/14 13:01:33;;;;;;;2.97;1.60;;;27.90;27.10;;;;;;5054415;28;20238;-80
2022/05/14 13:04:03;;;;;;;5.63;1.75;;;27.20;42.90;;;;;;5054761;28;20195;-80
2022/05/14 13:06:34;;;;;;;3.15;1.77;;;27.30;30.80;;;;;;5054935;28;20314;-80
2022/05/14 13:09:05;;;;;;;3.55;2.00;;;27.50;39.60;;;;;;5054388;28;20219;-81
2022/05/14 13:11:35;;;;;;;3.25;1.90;;;27.40;43.30;;;;;;5054047;28;20274;-81
2022/05/14 13:14:14;;;;;;;4.40;2.00;;;27.60;31.00;;;;;;5034452;28;20282;-81
2022/05/14 13:16:41;;;;;;;4.57;1.90;;;27.80;38.20;;;;;;5034502;28;20200;-81
2022/05/14 13:19:21;;;;;;;4.47;1.85;;;28.70;21.50;;;;;;5034091;28;20702;-80
2022/05/14 13:21:50;;;;;;;4.00;2.00;;;28.60;27.80;;;;;;5034550;28;20290;-80
2022/05/14 13:24:23;;;;;;;2.67;1.95;;;29.60;16.10;;;;;;5034358;28;20282;-79
2022/05/14 13:27:12;;;;;;;4.03;2.00;;;26.90;27.80;;;;;;5034004;28;20319;-79